KBWI/BWI METAR and TAF weather

Enter ICAO airport designator
Station Type Date Time Source
KBWI METAR 2019/06/16 06:54 UTC NOAA

KBWI 160654Z 22008KT 10SM BKN140 BKN160 BKN250 23/13 A2994 RMK AO2 SLP136 T02280133 $


Station Type Date Time Source
KBWI Decoded METAR 2019/06/16 06:54 UTC NOAA

BALTIMORE-WASHINGTON INTERNATIONAL , MD, United States (KBWI) 39-10N 076-41W 59M
Jun 16, 2019 - 02:54 AM EDT / 2019.06.16 0654 UTC
Wind: from the SW (220 degrees) at 9 MPH (8 KT):0
Visibility: 10 mile(s):0
Sky conditions: mostly cloudy
Temperature: 73.0 F (22.8 C)
Dew Point: 55.9 F (13.3 C)
Relative Humidity: 55%
Pressure (altimeter): 29.94 in. Hg (1013 hPa)
ob: KBWI 160654Z 22008KT 10SM BKN140 BKN160 BKN250 23/13 A2994 RMK AO2 SLP136 T02280133
cycle: 7

Station Type Date Time Source
KBWI TAF 2019/06/16 06:30 UTC NOAA

TAF KBWI 160526Z 1606/1712 21004KT P6SM BKN110
FM161500 22010KT P6SM BKN050
FM162100 24009KT 6SM -SHRA VCTS OVC040CB
FM170000 23005KT 6SM -SHRA OVC070
FM170300 23005KT P6SM BKN070

Example: see airport list